Rome State, OR

1:12 AM MDT on September 03, 2014 (GMT -0600)
Caldwell Industrial | Change Station
CLOSE
Current Station
Airport
Location: Caldwell,
Elevation: 2428 ft
Nearby Weather Stations

Elev 2428 ft 43.64 °N, 116.64 °W | Updated 17 minutes ago

Clear
Clear
63 °F
Feels Like 63 °F
N
9
Wind Variable Wind from West

Today
High -- | Low -- °F
--% Chance of Precip.
Yesterday
High -- | Low -- °F
Precip. -- in
7:18 AM 8:22 PM
First Quarter, 59% visible
Pressure 29.74 in
Visibility 10.0 miles
Clouds Clear
Dew Point 39 °F
Humidity 42%
Rainfall 0.00 in
Snow Depth Not available.
UV 0 out of 12
Pollen 5.40 out of 12
Air Quality Not available.
Flu Activity Not available.
METAR KEUL 030655Z AUTO 28008KT 10SM CLR 17/04 A2974 RMK AO1

More Conditions Fewer Conditions

Pressure 29.74 in
Visibility 10.0 miles
Clouds Clear
Dew Point 39 °F
Humidity 42%
Rainfall 0.00 in
Snow Depth Not available.
UV 0 out of 12
Pollen 5.40 out of 12
Air Quality Not available.
Flu Activity Not available.
METAR KEUL 030655Z AUTO 28008KT 10SM CLR 17/04 A2974 RMK AO1

More Conditions Fewer Conditions

10-Day Weather Forecast

Almanac

Astronomy

Sep. 03, 2014 Rise Set
Actual Time 7:18 AM MDT 8:22 PM MDT
Civil Twilight 6:49 AM MDT 8:50 PM MDT
Nautical Twilight 6:15 AM MDT 9:25 PM MDT
Astronomical Twilight 5:39 AM MDT 10:01 PM MDT
Moon 4:12 PM MDT 1:12 AM MDT
Length of Visible Light 14h 01m
Length of Day
13h 03m
Tomorrow will be 2m 48s shorter.
First Quarter, 59% of the Moon is Illuminated
Today
First Quarter
Sep 8
Full
Sep 15
Last Quarter
Sep 24
New
Oct 1
First Quarter

Today's Extremes

State Highs State Lows

Community

WunderPhotos

Upload Photos

1,749,888 photos uploaded!

Nearby

Snow Depth

Station Depth Elevation
Fish Creek 0 in 7900 ft
Rock Springs 0 in 5550 ft
Lake Creek R.S. 0 in 5200 ft
Blue Mountain Spring 0 in 5900 ft
Snow Mountain 0 in 6220 ft

Earthquake Activity

City Distance Mag. Time & Date
No recent earthquake activity has been reported nearby.
Minimum magnitude displayed is 2.5.

Coastal Water Temperatures

Place Temperature
No Stations Reporting

Nearby Weather Stations